Terminal Aerodrome Forecast
Issued by NWS Cleveland, OH

Home | Current Version | Previous Version | Graphics & Text | Print | Product List | Glossary On
Versions: 1 2 3 4 5 6 7 8 9 10 11 12 13 14 15 16 17 18
000
FTUS41 KCLE 260500
TAFCAK
TAF
KCAK 260540Z 2606/2706 20008KT P6SM SCT050 BKN150
     FM260700 20008KT P6SM BKN060
      TEMPO 2607/2609 -SHRA SCT035 BKN050
     FM260900 20006KT 6SM BR BKN028
     FM261600 20010G18KT P6SM BKN035
     FM270300 19010KT P6SM VCSH BKN050 OVC150=

USA.gov is the U.S. government's official web portal to all federal, state and local government web resources and services.